sensor_id;sensor_type;location;lat;lon;timestamp;temperature;humidity
9564;DHT22;4820;50.870;4.702;2022-10-22T00:02:23;15.50;99.90
9564;DHT22;4820;50.870;4.702;2022-10-22T00:04:50;15.50;99.90
9564;DHT22;4820;50.870;4.702;2022-10-22T00:07:17;15.50;99.90
9564;DHT22;4820;50.870;4.702;2022-10-22T00:09:43;15.50;99.90
9564;DHT22;4820;50.870;4.702;2022-10-22T00:12:09;15.50;99.90
9564;DHT22;4820;50.870;4.702;2022-10-22T00:14:35;15.40;99.90
9564;DHT22;4820;50.870;4.702;2022-10-22T00:17:01;15.50;99.90
9564;DHT22;4820;50.870;4.702;2022-10-22T00:19:27;15.50;99.90
9564;DHT22;4820;50.870;4.702;2022-10-22T00:21:53;15.60;99.90
9564;DHT22;4820;50.870;4.702;2022-10-22T00:24:19;15.60;99.90
9564;DHT22;4820;50.870;4.702;2022-10-22T00:26:46;15.60;99.90
9564;DHT22;4820;50.870;4.702;2022-10-22T00:29:14;15.60;99.90
9564;DHT22;4820;50.870;4.702;2022-10-22T00:31:43;15.50;99.90
9564;DHT22;4820;50.870;4.702;2022-10-22T00:34:15;15.40;99.90
9564;DHT22;4820;50.870;4.702;2022-10-22T00:36:41;15.40;99.90
9564;DHT22;4820;50.870;4.702;2022-10-22T00:39:07;15.30;99.90
9564;DHT22;4820;50.870;4.702;2022-10-22T00:41:33;15.30;99.90
9564;DHT22;4820;50.870;4.702;2022-10-22T00:44:04;15.30;99.90
9564;DHT22;4820;50.870;4.702;2022-10-22T00:46:30;15.30;99.90
9564;DHT22;4820;50.870;4.702;2022-10-22T00:48:58;15.30;99.90
9564;DHT22;4820;50.870;4.702;2022-10-22T00:51:29;15.40;99.90
9564;DHT22;4820;50.870;4.702;2022-10-22T00:54:02;15.40;99.90
9564;DHT22;4820;50.870;4.702;2022-10-22T00:56:28;15.50;99.90
9564;DHT22;4820;50.870;4.702;2022-10-22T00:58:56;15.50;99.90
9564;DHT22;4820;50.870;4.702;2022-10-22T01:01:26;15.50;99.90
9564;DHT22;4820;50.870;4.702;2022-10-22T01:03:52;15.50;99.90
9564;DHT22;4820;50.870;4.702;2022-10-22T01:06:32;15.50;99.90
9564;DHT22;4820;50.870;4.702;2022-10-22T01:17:15;15.50;99.90
9564;DHT22;4820;50.870;4.702;2022-10-22T01:22:37;15.50;99.90
9564;DHT22;4820;50.870;4.702;2022-10-22T01:25:12;15.50;99.90
9564;DHT22;4820;50.870;4.702;2022-10-22T01:27:53;15.50;99.90
9564;DHT22;4820;50.870;4.702;2022-10-22T01:30:22;15.50;99.90
9564;DHT22;4820;50.870;4.702;2022-10-22T01:32:53;15.50;99.90
9564;DHT22;4820;50.870;4.702;2022-10-22T01:35:25;15.50;99.90
9564;DHT22;4820;50.870;4.702;2022-10-22T01:37:54;15.50;99.90
9564;DHT22;4820;50.870;4.702;2022-10-22T01:40:22;15.50;99.90
9564;DHT22;4820;50.870;4.702;2022-10-22T01:43:01;15.50;99.90
9564;DHT22;4820;50.870;4.702;2022-10-22T01:45:29;15.50;99.90
9564;DHT22;4820;50.870;4.702;2022-10-22T01:48:06;15.50;99.90
9564;DHT22;4820;50.870;4.702;2022-10-22T01:56:10;15.50;99.90
9564;DHT22;4820;50.870;4.702;2022-10-22T02:04:08;15.50;99.90
9564;DHT22;4820;50.870;4.702;2022-10-22T02:06:36;15.40;99.90
9564;DHT22;4820;50.870;4.702;2022-10-22T02:09:06;15.40;99.90
9564;DHT22;4820;50.870;4.702;2022-10-22T02:11:33;15.40;99.90
9564;DHT22;4820;50.870;4.702;2022-10-22T02:14:02;15.40;99.90
9564;DHT22;4820;50.870;4.702;2022-10-22T02:16:49;15.40;99.90
9564;DHT22;4820;50.870;4.702;2022-10-22T02:19:38;15.40;99.90
9564;DHT22;4820;50.870;4.702;2022-10-22T02:22:06;15.40;99.90
9564;DHT22;4820;50.870;4.702;2022-10-22T02:24:32;15.50;99.90
9564;DHT22;4820;50.870;4.702;2022-10-22T02:27:08;15.40;99.90
9564;DHT22;4820;50.870;4.702;2022-10-22T02:30:09;15.40;99.90
9564;DHT22;4820;50.870;4.702;2022-10-22T02:32:44;15.40;99.90
9564;DHT22;4820;50.870;4.702;2022-10-22T02:35:17;15.40;99.90
9564;DHT22;4820;50.870;4.702;2022-10-22T02:37:44;15.30;99.90
9564;DHT22;4820;50.870;4.702;2022-10-22T02:40:10;15.30;99.90
9564;DHT22;4820;50.870;4.702;2022-10-22T02:42:38;15.30;99.90
9564;DHT22;4820;50.870;4.702;2022-10-22T02:45:05;15.30;99.90
9564;DHT22;4820;50.870;4.702;2022-10-22T02:47:31;15.20;99.90
9564;DHT22;4820;50.870;4.702;2022-10-22T02:49:57;15.20;99.90
9564;DHT22;4820;50.870;4.702;2022-10-22T02:52:22;15.30;99.90
9564;DHT22;4820;50.870;4.702;2022-10-22T02:54:48;15.20;99.90
9564;DHT22;4820;50.870;4.702;2022-10-22T02:57:14;15.20;99.90
9564;DHT22;4820;50.870;4.702;2022-10-22T02:59:40;15.20;99.90
9564;DHT22;4820;50.870;4.702;2022-10-22T03:02:05;15.20;99.90
9564;DHT22;4820;50.870;4.702;2022-10-22T03:04:31;15.20;99.90
9564;DHT22;4820;50.870;4.702;2022-10-22T03:06:57;15.20;99.90
9564;DHT22;4820;50.870;4.702;2022-10-22T03:09:22;15.20;99.90
9564;DHT22;4820;50.870;4.702;2022-10-22T03:11:48;15.20;99.90
9564;DHT22;4820;50.870;4.702;2022-10-22T03:14:14;15.20;99.90
9564;DHT22;4820;50.870;4.702;2022-10-22T03:16:39;15.20;99.90
9564;DHT22;4820;50.870;4.702;2022-10-22T03:19:05;15.10;99.90
9564;DHT22;4820;50.870;4.702;2022-10-22T03:24:07;15.10;99.90
9564;DHT22;4820;50.870;4.702;2022-10-22T03:26:34;15.10;99.90
9564;DHT22;4820;50.870;4.702;2022-10-22T03:29:01;15.00;99.90
9564;DHT22;4820;50.870;4.702;2022-10-22T03:31:27;15.00;99.90
9564;DHT22;4820;50.870;4.702;2022-10-22T03:33:52;15.00;99.90
9564;DHT22;4820;50.870;4.702;2022-10-22T03:36:18;15.00;99.90
9564;DHT22;4820;50.870;4.702;2022-10-22T03:38:44;15.00;99.90
9564;DHT22;4820;50.870;4.702;2022-10-22T03:41:10;15.00;99.90
9564;DHT22;4820;50.870;4.702;2022-10-22T03:43:36;15.00;99.90
9564;DHT22;4820;50.870;4.702;2022-10-22T03:46:04;15.00;99.90
9564;DHT22;4820;50.870;4.702;2022-10-22T03:48:29;15.00;99.90
9564;DHT22;4820;50.870;4.702;2022-10-22T03:50:55;15.00;99.90
9564;DHT22;4820;50.870;4.702;2022-10-22T03:53:21;15.00;99.90
9564;DHT22;4820;50.870;4.702;2022-10-22T03:55:46;15.00;99.90
9564;DHT22;4820;50.870;4.702;2022-10-22T03:58:12;15.00;99.90
9564;DHT22;4820;50.870;4.702;2022-10-22T04:00:38;15.00;99.90
9564;DHT22;4820;50.870;4.702;2022-10-22T04:03:03;15.10;99.90
9564;DHT22;4820;50.870;4.702;2022-10-22T04:05:31;15.10;99.90
9564;DHT22;4820;50.870;4.702;2022-10-22T04:07:57;15.10;99.90
9564;DHT22;4820;50.870;4.702;2022-10-22T04:10:23;15.10;99.90
9564;DHT22;4820;50.870;4.702;2022-10-22T04:12:50;15.10;99.90
9564;DHT22;4820;50.870;4.702;2022-10-22T04:15:16;15.10;99.90
9564;DHT22;4820;50.870;4.702;2022-10-22T04:17:41;15.20;99.90
9564;DHT22;4820;50.870;4.702;2022-10-22T04:20:08;15.20;99.90
9564;DHT22;4820;50.870;4.702;2022-10-22T04:22:34;15.20;99.90
9564;DHT22;4820;50.870;4.702;2022-10-22T04:25:01;15.20;99.90
9564;DHT22;4820;50.870;4.702;2022-10-22T04:27:33;15.20;99.90
9564;DHT22;4820;50.870;4.702;2022-10-22T04:29:59;15.20;99.90
9564;DHT22;4820;50.870;4.702;2022-10-22T04:32:26;15.20;99.90
9564;DHT22;4820;50.870;4.702;2022-10-22T04:34:52;15.20;99.90
9564;DHT22;4820;50.870;4.702;2022-10-22T04:37:19;15.20;99.90
9564;DHT22;4820;50.870;4.702;2022-10-22T04:39:45;15.20;99.90
9564;DHT22;4820;50.870;4.702;2022-10-22T04:42:11;15.10;99.90
9564;DHT22;4820;50.870;4.702;2022-10-22T04:44:37;15.10;99.90
9564;DHT22;4820;50.870;4.702;2022-10-22T04:47:03;15.10;99.90
9564;DHT22;4820;50.870;4.702;2022-10-22T04:49:28;15.10;99.90
9564;DHT22;4820;50.870;4.702;2022-10-22T04:51:54;15.00;99.90
9564;DHT22;4820;50.870;4.702;2022-10-22T04:54:20;15.00;99.90
9564;DHT22;4820;50.870;4.702;2022-10-22T04:56:46;15.00;99.90
9564;DHT22;4820;50.870;4.702;2022-10-22T04:59:11;15.00;99.90
9564;DHT22;4820;50.870;4.702;2022-10-22T05:01:42;15.00;99.90
9564;DHT22;4820;50.870;4.702;2022-10-22T05:04:10;14.90;99.90
9564;DHT22;4820;50.870;4.702;2022-10-22T05:06:37;14.90;99.90
9564;DHT22;4820;50.870;4.702;2022-10-22T05:09:06;15.00;99.90
9564;DHT22;4820;50.870;4.702;2022-10-22T05:11:34;15.00;99.90
9564;DHT22;4820;50.870;4.702;2022-10-22T05:14:02;15.00;99.90
9564;DHT22;4820;50.870;4.702;2022-10-22T05:16:29;15.00;99.90
9564;DHT22;4820;50.870;4.702;2022-10-22T05:18:55;15.00;99.90
9564;DHT22;4820;50.870;4.702;2022-10-22T05:21:21;15.10;99.90
9564;DHT22;4820;50.870;4.702;2022-10-22T05:23:48;15.10;99.90
9564;DHT22;4820;50.870;4.702;2022-10-22T05:26:17;15.10;99.90
9564;DHT22;4820;50.870;4.702;2022-10-22T05:28:43;15.20;99.90
9564;DHT22;4820;50.870;4.702;2022-10-22T05:31:11;15.10;99.90
9564;DHT22;4820;50.870;4.702;2022-10-22T05:33:37;15.20;99.90
9564;DHT22;4820;50.870;4.702;2022-10-22T05:36:05;15.20;99.90
9564;DHT22;4820;50.870;4.702;2022-10-22T05:38:31;15.20;99.90
9564;DHT22;4820;50.870;4.702;2022-10-22T05:40:59;15.20;99.90
9564;DHT22;4820;50.870;4.702;2022-10-22T05:43:26;15.20;99.90
9564;DHT22;4820;50.870;4.702;2022-10-22T05:45:52;15.20;99.90
9564;DHT22;4820;50.870;4.702;2022-10-22T05:48:18;15.10;99.90
9564;DHT22;4820;50.870;4.702;2022-10-22T05:50:44;15.10;99.90
9564;DHT22;4820;50.870;4.702;2022-10-22T05:53:15;15.10;99.90
9564;DHT22;4820;50.870;4.702;2022-10-22T05:55:41;15.20;99.90
9564;DHT22;4820;50.870;4.702;2022-10-22T05:58:09;15.20;99.90
9564;DHT22;4820;50.870;4.702;2022-10-22T06:00:35;15.20;99.90
9564;DHT22;4820;50.870;4.702;2022-10-22T06:03:00;15.20;99.90
9564;DHT22;4820;50.870;4.702;2022-10-22T06:05:26;15.20;99.90
9564;DHT22;4820;50.870;4.702;2022-10-22T06:07:52;15.20;99.90
9564;DHT22;4820;50.870;4.702;2022-10-22T06:10:19;15.20;99.90
9564;DHT22;4820;50.870;4.702;2022-10-22T06:12:46;15.20;99.90
9564;DHT22;4820;50.870;4.702;2022-10-22T06:15:14;15.20;99.90
9564;DHT22;4820;50.870;4.702;2022-10-22T06:17:40;15.20;99.90
9564;DHT22;4820;50.870;4.702;2022-10-22T06:20:06;15.20;99.90
9564;DHT22;4820;50.870;4.702;2022-10-22T06:22:32;15.20;99.90
9564;DHT22;4820;50.870;4.702;2022-10-22T06:24:58;15.20;99.90
9564;DHT22;4820;50.870;4.702;2022-10-22T06:27:25;15.30;99.90
9564;DHT22;4820;50.870;4.702;2022-10-22T06:29:50;15.20;99.90
9564;DHT22;4820;50.870;4.702;2022-10-22T06:32:16;15.20;99.90
9564;DHT22;4820;50.870;4.702;2022-10-22T06:34:43;15.20;99.90
9564;DHT22;4820;50.870;4.702;2022-10-22T06:37:09;15.20;99.90
9564;DHT22;4820;50.870;4.702;2022-10-22T06:39:35;15.20;99.90
9564;DHT22;4820;50.870;4.702;2022-10-22T06:42:00;15.20;99.90
9564;DHT22;4820;50.870;4.702;2022-10-22T06:44:27;15.20;99.90
9564;DHT22;4820;50.870;4.702;2022-10-22T06:46:52;15.30;99.90
9564;DHT22;4820;50.870;4.702;2022-10-22T06:49:19;15.30;99.90
9564;DHT22;4820;50.870;4.702;2022-10-22T06:51:49;15.30;99.90
9564;DHT22;4820;50.870;4.702;2022-10-22T06:54:15;15.40;99.90
9564;DHT22;4820;50.870;4.702;2022-10-22T06:56:41;15.30;99.90
9564;DHT22;4820;50.870;4.702;2022-10-22T06:59:06;15.40;99.90
9564;DHT22;4820;50.870;4.702;2022-10-22T07:01:34;15.40;99.90
9564;DHT22;4820;50.870;4.702;2022-10-22T07:04:00;15.40;99.90
9564;DHT22;4820;50.870;4.702;2022-10-22T07:06:27;15.40;99.90
9564;DHT22;4820;50.870;4.702;2022-10-22T07:08:54;15.40;99.90
9564;DHT22;4820;50.870;4.702;2022-10-22T07:11:22;15.40;99.90
9564;DHT22;4820;50.870;4.702;2022-10-22T07:13:49;15.40;99.90
9564;DHT22;4820;50.870;4.702;2022-10-22T07:16:15;15.50;99.90
9564;DHT22;4820;50.870;4.702;2022-10-22T07:18:42;15.50;99.90
9564;DHT22;4820;50.870;4.702;2022-10-22T07:21:10;15.60;99.90
9564;DHT22;4820;50.870;4.702;2022-10-22T07:23:36;15.60;99.90
9564;DHT22;4820;50.870;4.702;2022-10-22T07:26:02;15.70;99.90
9564;DHT22;4820;50.870;4.702;2022-10-22T07:28:29;15.70;99.90
9564;DHT22;4820;50.870;4.702;2022-10-22T07:30:55;15.70;99.90
9564;DHT22;4820;50.870;4.702;2022-10-22T07:33:20;15.80;99.90
9564;DHT22;4820;50.870;4.702;2022-10-22T07:35:46;15.80;99.90
9564;DHT22;4820;50.870;4.702;2022-10-22T07:38:12;15.80;99.90
9564;DHT22;4820;50.870;4.702;2022-10-22T07:40:39;15.70;99.90
9564;DHT22;4820;50.870;4.702;2022-10-22T07:43:05;15.70;99.90
9564;DHT22;4820;50.870;4.702;2022-10-22T07:45:31;15.80;99.90
9564;DHT22;4820;50.870;4.702;2022-10-22T07:47:58;15.80;99.90
9564;DHT22;4820;50.870;4.702;2022-10-22T07:50:25;15.80;99.90
9564;DHT22;4820;50.870;4.702;2022-10-22T07:52:51;15.80;99.90
9564;DHT22;4820;50.870;4.702;2022-10-22T07:55:16;15.80;99.90
9564;DHT22;4820;50.870;4.702;2022-10-22T07:57:42;15.80;99.90
9564;DHT22;4820;50.870;4.702;2022-10-22T08:00:08;15.90;99.90
9564;DHT22;4820;50.870;4.702;2022-10-22T08:02:34;15.90;99.90
9564;DHT22;4820;50.870;4.702;2022-10-22T08:05:00;16.00;99.90
9564;DHT22;4820;50.870;4.702;2022-10-22T08:07:25;16.10;99.90
9564;DHT22;4820;50.870;4.702;2022-10-22T08:09:51;16.10;99.90
9564;DHT22;4820;50.870;4.702;2022-10-22T08:12:17;16.20;99.90
9564;DHT22;4820;50.870;4.702;2022-10-22T08:14:44;16.20;99.90
9564;DHT22;4820;50.870;4.702;2022-10-22T08:17:10;16.30;99.90
9564;DHT22;4820;50.870;4.702;2022-10-22T08:19:36;16.30;99.90
9564;DHT22;4820;50.870;4.702;2022-10-22T08:22:02;16.30;99.90
9564;DHT22;4820;50.870;4.702;2022-10-22T08:24:28;16.30;99.90
9564;DHT22;4820;50.870;4.702;2022-10-22T08:26:54;16.40;99.90
9564;DHT22;4820;50.870;4.702;2022-10-22T08:29:24;16.40;99.90
9564;DHT22;4820;50.870;4.702;2022-10-22T08:31:52;16.40;99.90
9564;DHT22;4820;50.870;4.702;2022-10-22T08:34:18;16.50;99.90
9564;DHT22;4820;50.870;4.702;2022-10-22T08:36:45;16.50;99.90
9564;DHT22;4820;50.870;4.702;2022-10-22T08:39:11;16.60;99.90
9564;DHT22;4820;50.870;4.702;2022-10-22T08:47:11;16.70;99.90
9564;DHT22;4820;50.870;4.702;2022-10-22T08:49:41;16.80;99.90
9564;DHT22;4820;50.870;4.702;2022-10-22T08:52:12;16.80;99.90
9564;DHT22;4820;50.870;4.702;2022-10-22T08:54:58;16.80;99.90
9564;DHT22;4820;50.870;4.702;2022-10-22T09:08:21;16.90;99.90
9564;DHT22;4820;50.870;4.702;2022-10-22T09:10:50;16.90;99.90
9564;DHT22;4820;50.870;4.702;2022-10-22T09:13:19;16.90;99.90
9564;DHT22;4820;50.870;4.702;2022-10-22T09:15:59;16.90;99.90
9564;DHT22;4820;50.870;4.702;2022-10-22T09:18:35;16.80;99.90
9564;DHT22;4820;50.870;4.702;2022-10-22T09:24:12;16.90;99.90
9564;DHT22;4820;50.870;4.702;2022-10-22T09:26:40;16.90;99.90
9564;DHT22;4820;50.870;4.702;2022-10-22T09:29:08;16.90;99.90
9564;DHT22;4820;50.870;4.702;2022-10-22T09:31:38;17.00;99.90
9564;DHT22;4820;50.870;4.702;2022-10-22T09:34:03;16.90;99.90
9564;DHT22;4820;50.870;4.702;2022-10-22T09:36:32;16.90;99.90
9564;DHT22;4820;50.870;4.702;2022-10-22T09:38:58;16.90;99.90
9564;DHT22;4820;50.870;4.702;2022-10-22T09:41:27;16.90;99.90
9564;DHT22;4820;50.870;4.702;2022-10-22T09:43:57;16.80;99.90
9564;DHT22;4820;50.870;4.702;2022-10-22T09:46:26;16.90;99.90
9564;DHT22;4820;50.870;4.702;2022-10-22T09:49:04;17.00;99.90
9564;DHT22;4820;50.870;4.702;2022-10-22T09:54:25;17.20;99.90
9564;DHT22;4820;50.870;4.702;2022-10-22T09:57:04;17.20;99.90
9564;DHT22;4820;50.870;4.702;2022-10-22T09:59:32;17.20;99.90
9564;DHT22;4820;50.870;4.702;2022-10-22T10:02:26;17.20;99.90
9564;DHT22;4820;50.870;4.702;2022-10-22T10:04:56;17.20;99.90
9564;DHT22;4820;50.870;4.702;2022-10-22T10:07:24;17.20;99.90
9564;DHT22;4820;50.870;4.702;2022-10-22T10:09:52;17.20;99.90
9564;DHT22;4820;50.870;4.702;2022-10-22T10:12:45;17.20;99.90
9564;DHT22;4820;50.870;4.702;2022-10-22T10:15:35;17.30;99.90
9564;DHT22;4820;50.870;4.702;2022-10-22T10:20:52;17.40;99.90
9564;DHT22;4820;50.870;4.702;2022-10-22T10:26:16;17.40;99.90
9564;DHT22;4820;50.870;4.702;2022-10-22T10:29:00;17.40;99.90
9564;DHT22;4820;50.870;4.702;2022-10-22T10:37:23;17.50;99.90
9564;DHT22;4820;50.870;4.702;2022-10-22T10:40:18;17.60;99.90
9564;DHT22;4820;50.870;4.702;2022-10-22T10:43:06;17.50;99.90
9564;DHT22;4820;50.870;4.702;2022-10-22T10:57:10;17.40;99.90
9564;DHT22;4820;50.870;4.702;2022-10-22T11:08:12;17.40;99.90
9564;DHT22;4820;50.870;4.702;2022-10-22T11:10:47;17.40;99.90
9564;DHT22;4820;50.870;4.702;2022-10-22T11:13:40;17.40;99.90
9564;DHT22;4820;50.870;4.702;2022-10-22T11:16:24;17.40;99.90
9564;DHT22;4820;50.870;4.702;2022-10-22T11:21:48;17.40;99.90
9564;DHT22;4820;50.870;4.702;2022-10-22T11:24:29;17.50;99.90
9564;DHT22;4820;50.870;4.702;2022-10-22T11:29:46;17.90;99.90
9564;DHT22;4820;50.870;4.702;2022-10-22T11:32:20;18.00;99.90
9564;DHT22;4820;50.870;4.702;2022-10-22T11:34:56;18.00;99.90
9564;DHT22;4820;50.870;4.702;2022-10-22T11:37:25;18.00;99.90
9564;DHT22;4820;50.870;4.702;2022-10-22T11:39:57;18.00;99.90
9564;DHT22;4820;50.870;4.702;2022-10-22T11:42:56;18.20;99.90
9564;DHT22;4820;50.870;4.702;2022-10-22T11:53:36;18.80;99.90
9564;DHT22;4820;50.870;4.702;2022-10-22T12:01:16;19.00;99.90
9564;DHT22;4820;50.870;4.702;2022-10-22T12:06:23;19.10;99.90
9564;DHT22;4820;50.870;4.702;2022-10-22T12:11:25;19.20;99.90
9564;DHT22;4820;50.870;4.702;2022-10-22T12:13:54;19.30;99.90
9564;DHT22;4820;50.870;4.702;2022-10-22T12:16:50;19.50;99.90
9564;DHT22;4820;50.870;4.702;2022-10-22T12:19:17;19.50;99.90
9564;DHT22;4820;50.870;4.702;2022-10-22T12:21:50;19.30;99.90
9564;DHT22;4820;50.870;4.702;2022-10-22T12:24:19;19.20;99.90
9564;DHT22;4820;50.870;4.702;2022-10-22T12:26:45;19.20;99.90
9564;DHT22;4820;50.870;4.702;2022-10-22T12:29:15;19.10;99.90
9564;DHT22;4820;50.870;4.702;2022-10-22T12:31:42;18.90;99.90
9564;DHT22;4820;50.870;4.702;2022-10-22T12:34:14;18.80;99.90
9564;DHT22;4820;50.870;4.702;2022-10-22T12:36:40;18.60;99.90
9564;DHT22;4820;50.870;4.702;2022-10-22T12:39:19;18.60;99.90
9564;DHT22;4820;50.870;4.702;2022-10-22T12:41:45;18.50;99.90
9564;DHT22;4820;50.870;4.702;2022-10-22T12:44:16;18.50;99.90
9564;DHT22;4820;50.870;4.702;2022-10-22T12:46:44;18.50;99.90
9564;DHT22;4820;50.870;4.702;2022-10-22T12:49:19;18.50;99.90
9564;DHT22;4820;50.870;4.702;2022-10-22T12:51:46;18.60;99.90
9564;DHT22;4820;50.870;4.702;2022-10-22T12:54:22;18.60;99.90
9564;DHT22;4820;50.870;4.702;2022-10-22T12:56:49;18.60;99.90
9564;DHT22;4820;50.870;4.702;2022-10-22T12:59:23;18.60;99.90
9564;DHT22;4820;50.870;4.702;2022-10-22T13:01:50;18.70;99.90
9564;DHT22;4820;50.870;4.702;2022-10-22T13:07:15;18.80;99.90
9564;DHT22;4820;50.870;4.702;2022-10-22T13:09:56;18.90;99.90
9564;DHT22;4820;50.870;4.702;2022-10-22T13:12:35;19.00;99.90
9564;DHT22;4820;50.870;4.702;2022-10-22T13:18:17;19.20;99.90
9564;DHT22;4820;50.870;4.702;2022-10-22T13:20:57;19.30;99.90
9564;DHT22;4820;50.870;4.702;2022-10-22T13:23:29;19.50;99.90
9564;DHT22;4820;50.870;4.702;2022-10-22T13:26:11;19.50;99.90
9564;DHT22;4820;50.870;4.702;2022-10-22T13:28:38;19.50;99.90
9564;DHT22;4820;50.870;4.702;2022-10-22T13:31:16;19.50;99.90
9564;DHT22;4820;50.870;4.702;2022-10-22T13:33:49;19.50;99.90
9564;DHT22;4820;50.870;4.702;2022-10-22T13:36:16;19.50;99.90
9564;DHT22;4820;50.870;4.702;2022-10-22T13:38:42;19.40;99.90
9564;DHT22;4820;50.870;4.702;2022-10-22T13:41:26;19.40;99.90
9564;DHT22;4820;50.870;4.702;2022-10-22T13:43:53;19.40;99.90
9564;DHT22;4820;50.870;4.702;2022-10-22T13:46:20;19.50;99.90
9564;DHT22;4820;50.870;4.702;2022-10-22T13:48:47;19.50;99.90
9564;DHT22;4820;50.870;4.702;2022-10-22T13:51:15;19.60;99.90
9564;DHT22;4820;50.870;4.702;2022-10-22T13:53:42;19.70;99.90
9564;DHT22;4820;50.870;4.702;2022-10-22T13:56:14;19.70;99.90
9564;DHT22;4820;50.870;4.702;2022-10-22T13:58:40;19.70;99.90
9564;DHT22;4820;50.870;4.702;2022-10-22T14:01:22;19.70;99.90
9564;DHT22;4820;50.870;4.702;2022-10-22T14:03:50;19.70;99.90
9564;DHT22;4820;50.870;4.702;2022-10-22T14:06:18;19.70;99.90
9564;DHT22;4820;50.870;4.702;2022-10-22T14:08:55;19.70;99.90
9564;DHT22;4820;50.870;4.702;2022-10-22T14:11:25;19.60;99.90
9564;DHT22;4820;50.870;4.702;2022-10-22T14:13:56;19.50;99.90
9564;DHT22;4820;50.870;4.702;2022-10-22T14:16:26;19.50;99.90
9564;DHT22;4820;50.870;4.702;2022-10-22T14:18:53;19.60;99.90
9564;DHT22;4820;50.870;4.702;2022-10-22T14:21:20;19.70;99.90
9564;DHT22;4820;50.870;4.702;2022-10-22T14:23:46;19.70;99.90
9564;DHT22;4820;50.870;4.702;2022-10-22T14:26:29;19.80;99.90
9564;DHT22;4820;50.870;4.702;2022-10-22T14:29:01;19.80;99.90
9564;DHT22;4820;50.870;4.702;2022-10-22T14:31:27;19.90;99.90
9564;DHT22;4820;50.870;4.702;2022-10-22T14:33:52;19.90;99.90
9564;DHT22;4820;50.870;4.702;2022-10-22T14:36:18;19.80;99.90
9564;DHT22;4820;50.870;4.702;2022-10-22T14:38:46;19.80;99.90
9564;DHT22;4820;50.870;4.702;2022-10-22T14:41:23;19.70;99.90
9564;DHT22;4820;50.870;4.702;2022-10-22T14:43:49;19.60;99.90
9564;DHT22;4820;50.870;4.702;2022-10-22T14:46:17;19.60;99.90
9564;DHT22;4820;50.870;4.702;2022-10-22T14:48:43;19.50;99.90
9564;DHT22;4820;50.870;4.702;2022-10-22T14:51:15;19.40;99.90
9564;DHT22;4820;50.870;4.702;2022-10-22T14:53:41;19.40;99.90
9564;DHT22;4820;50.870;4.702;2022-10-22T14:56:11;19.40;99.90
9564;DHT22;4820;50.870;4.702;2022-10-22T14:58:38;19.40;99.90
9564;DHT22;4820;50.870;4.702;2022-10-22T15:01:04;19.40;99.90
9564;DHT22;4820;50.870;4.702;2022-10-22T15:03:30;19.50;99.90
9564;DHT22;4820;50.870;4.702;2022-10-22T15:05:56;19.50;99.90
9564;DHT22;4820;50.870;4.702;2022-10-22T15:08:22;19.40;99.90
9564;DHT22;4820;50.870;4.702;2022-10-22T15:11:06;19.40;99.90
9564;DHT22;4820;50.870;4.702;2022-10-22T15:13:34;19.40;99.90
9564;DHT22;4820;50.870;4.702;2022-10-22T15:16:00;19.40;99.90
9564;DHT22;4820;50.870;4.702;2022-10-22T15:18:28;19.40;99.90
9564;DHT22;4820;50.870;4.702;2022-10-22T15:20:59;19.40;99.90
9564;DHT22;4820;50.870;4.702;2022-10-22T15:23:26;19.40;99.90
9564;DHT22;4820;50.870;4.702;2022-10-22T15:25:53;19.40;99.90
9564;DHT22;4820;50.870;4.702;2022-10-22T15:28:18;19.30;99.90
9564;DHT22;4820;50.870;4.702;2022-10-22T15:30:50;19.30;99.90
9564;DHT22;4820;50.870;4.702;2022-10-22T15:33:15;19.20;99.90
9564;DHT22;4820;50.870;4.702;2022-10-22T15:35:41;19.20;99.90
9564;DHT22;4820;50.870;4.702;2022-10-22T15:38:07;19.20;99.90
9564;DHT22;4820;50.870;4.702;2022-10-22T15:40:33;19.20;99.90
9564;DHT22;4820;50.870;4.702;2022-10-22T15:42:59;19.20;99.90
9564;DHT22;4820;50.870;4.702;2022-10-22T15:45:25;19.20;99.90
9564;DHT22;4820;50.870;4.702;2022-10-22T15:47:50;19.20;99.90
9564;DHT22;4820;50.870;4.702;2022-10-22T15:50:16;19.20;99.90
9564;DHT22;4820;50.870;4.702;2022-10-22T15:52:42;19.10;99.90
9564;DHT22;4820;50.870;4.702;2022-10-22T15:55:07;19.10;99.90
9564;DHT22;4820;50.870;4.702;2022-10-22T15:57:36;19.10;99.90
9564;DHT22;4820;50.870;4.702;2022-10-22T16:00:04;19.00;99.90
9564;DHT22;4820;50.870;4.702;2022-10-22T16:05:06;19.00;99.90
9564;DHT22;4820;50.870;4.702;2022-10-22T16:07:31;18.90;99.90
9564;DHT22;4820;50.870;4.702;2022-10-22T16:09:59;18.90;99.90
9564;DHT22;4820;50.870;4.702;2022-10-22T16:12:26;18.90;99.90
9564;DHT22;4820;50.870;4.702;2022-10-22T16:14:52;18.80;99.90
9564;DHT22;4820;50.870;4.702;2022-10-22T16:17:18;18.70;99.90
9564;DHT22;4820;50.870;4.702;2022-10-22T16:19:46;18.60;99.90
9564;DHT22;4820;50.870;4.702;2022-10-22T16:22:12;18.60;99.90
9564;DHT22;4820;50.870;4.702;2022-10-22T16:24:40;18.50;99.90
9564;DHT22;4820;50.870;4.702;2022-10-22T16:27:09;18.40;99.90
9564;DHT22;4820;50.870;4.702;2022-10-22T16:29:38;18.30;99.90
9564;DHT22;4820;50.870;4.702;2022-10-22T16:32:06;18.20;99.90
9564;DHT22;4820;50.870;4.702;2022-10-22T16:34:34;18.10;99.90
9564;DHT22;4820;50.870;4.702;2022-10-22T16:37:00;18.00;99.90
9564;DHT22;4820;50.870;4.702;2022-10-22T16:39:25;18.00;99.90
9564;DHT22;4820;50.870;4.702;2022-10-22T16:41:51;17.90;99.90
9564;DHT22;4820;50.870;4.702;2022-10-22T16:44:16;17.90;99.90
9564;DHT22;4820;50.870;4.702;2022-10-22T16:46:42;17.90;99.90
9564;DHT22;4820;50.870;4.702;2022-10-22T16:49:08;17.90;99.90
9564;DHT22;4820;50.870;4.702;2022-10-22T16:51:34;17.80;99.90
9564;DHT22;4820;50.870;4.702;2022-10-22T16:54:00;17.80;99.90
9564;DHT22;4820;50.870;4.702;2022-10-22T16:56:27;17.70;99.90
9564;DHT22;4820;50.870;4.702;2022-10-22T16:58:55;17.70;99.90
9564;DHT22;4820;50.870;4.702;2022-10-22T17:01:23;17.70;99.90
9564;DHT22;4820;50.870;4.702;2022-10-22T17:03:51;17.60;99.90
9564;DHT22;4820;50.870;4.702;2022-10-22T17:06:17;17.60;99.90
9564;DHT22;4820;50.870;4.702;2022-10-22T17:08:43;17.60;99.90
9564;DHT22;4820;50.870;4.702;2022-10-22T17:11:11;17.50;99.90
9564;DHT22;4820;50.870;4.702;2022-10-22T17:13:39;17.40;99.90
9564;DHT22;4820;50.870;4.702;2022-10-22T17:16:07;17.40;99.90
9564;DHT22;4820;50.870;4.702;2022-10-22T17:18:35;17.40;99.90
9564;DHT22;4820;50.870;4.702;2022-10-22T17:21:02;17.30;99.90
9564;DHT22;4820;50.870;4.702;2022-10-22T17:23:28;17.30;99.90
9564;DHT22;4820;50.870;4.702;2022-10-22T17:25:58;17.20;99.90
9564;DHT22;4820;50.870;4.702;2022-10-22T17:28:24;17.30;99.90
9564;DHT22;4820;50.870;4.702;2022-10-22T17:31:01;17.20;99.90
9564;DHT22;4820;50.870;4.702;2022-10-22T17:33:26;17.20;99.90
9564;DHT22;4820;50.870;4.702;2022-10-22T17:35:53;17.20;99.90
9564;DHT22;4820;50.870;4.702;2022-10-22T17:38:20;17.20;99.90
9564;DHT22;4820;50.870;4.702;2022-10-22T17:40:45;17.20;99.90
9564;DHT22;4820;50.870;4.702;2022-10-22T17:43:12;17.20;99.90
9564;DHT22;4820;50.870;4.702;2022-10-22T17:45:38;17.10;99.90
9564;DHT22;4820;50.870;4.702;2022-10-22T17:48:04;17.10;99.90
9564;DHT22;4820;50.870;4.702;2022-10-22T17:50:29;17.00;99.90
9564;DHT22;4820;50.870;4.702;2022-10-22T17:52:55;17.00;99.90
9564;DHT22;4820;50.870;4.702;2022-10-22T17:55:22;17.00;99.90
9564;DHT22;4820;50.870;4.702;2022-10-22T17:57:49;16.90;99.90
9564;DHT22;4820;50.870;4.702;2022-10-22T18:00:15;16.80;99.90
9564;DHT22;4820;50.870;4.702;2022-10-22T18:02:42;16.80;99.90
9564;DHT22;4820;50.870;4.702;2022-10-22T18:05:08;16.70;99.90